createdAt,value
2018-06-13T00:01:12.820Z,17.08
2018-06-13T00:03:40.788Z,17.05
2018-06-13T00:06:08.805Z,17.04
2018-06-13T00:08:36.843Z,17.02
2018-06-13T00:11:04.878Z,16.97
2018-06-13T00:13:33.134Z,16.95
2018-06-13T00:16:01.199Z,16.93
2018-06-13T00:18:29.413Z,16.90
2018-06-13T00:20:57.494Z,16.92
2018-06-13T00:23:25.554Z,16.91
2018-06-13T00:25:53.556Z,16.95
2018-06-13T00:28:21.531Z,16.91
2018-06-13T00:30:49.552Z,16.87
2018-06-13T00:33:17.624Z,16.83
2018-06-13T00:35:45.653Z,16.81
2018-06-13T00:38:13.680Z,16.78
2018-06-13T00:40:41.766Z,16.75
2018-06-13T00:43:09.799Z,16.83
2018-06-13T00:45:37.956Z,16.83
2018-06-13T00:48:06.019Z,16.84
2018-06-13T00:50:34.084Z,16.82
2018-06-13T00:53:02.140Z,16.81
2018-06-13T00:55:30.161Z,16.79
2018-06-13T00:57:58.305Z,16.79
2018-06-13T01:00:26.382Z,16.77
2018-06-13T01:02:54.473Z,16.74
2018-06-13T01:05:22.555Z,16.73
2018-06-13T01:07:50.620Z,16.72
2018-06-13T01:10:18.568Z,16.68
2018-06-13T01:12:46.602Z,16.64
2018-06-13T01:15:14.792Z,16.73
2018-06-13T01:17:42.910Z,16.63
2018-06-13T01:20:10.906Z,16.58
2018-06-13T01:22:38.927Z,16.53
2018-06-13T01:25:07.055Z,16.50
2018-06-13T01:27:34.986Z,16.68
2018-06-13T01:30:03.027Z,16.46
2018-06-13T01:32:31.060Z,16.53
2018-06-13T01:34:59.111Z,16.36
2018-06-13T01:37:27.145Z,16.57
2018-06-13T01:39:55.161Z,16.43
2018-06-13T01:42:23.290Z,16.37
2018-06-13T01:44:51.292Z,16.33
2018-06-13T01:47:19.300Z,16.46
2018-06-13T01:49:47.332Z,16.35
2018-06-13T01:52:15.380Z,16.25
2018-06-13T01:54:43.406Z,16.24
2018-06-13T01:57:11.424Z,16.24
2018-06-13T01:59:39.522Z,16.27
2018-06-13T02:02:07.623Z,16.25
2018-06-13T02:04:35.676Z,16.20
2018-06-13T02:07:03.780Z,16.15
2018-06-13T02:09:31.766Z,16.13
2018-06-13T02:11:59.751Z,16.11
2018-06-13T02:14:27.759Z,16.11
2018-06-13T02:16:55.808Z,16.03
2018-06-13T02:19:23.854Z,16.02
2018-06-13T02:21:51.917Z,15.99
2018-06-13T02:24:19.941Z,15.97
2018-06-13T02:26:47.967Z,15.91
2018-06-13T02:29:16.021Z,15.95
2018-06-13T02:31:44.087Z,15.95
2018-06-13T02:34:12.116Z,15.95
2018-06-13T02:36:40.220Z,15.88
2018-06-13T02:39:08.443Z,15.89
2018-06-13T02:41:36.750Z,15.87
2018-06-13T02:44:04.877Z,15.83
2018-06-13T02:46:33.429Z,15.86
2018-06-13T02:49:01.595Z,15.88
2018-06-13T02:51:29.628Z,15.90
2018-06-13T02:53:57.688Z,15.91
2018-06-13T02:56:25.816Z,15.92
2018-06-13T02:58:53.799Z,16.00
2018-06-13T03:01:21.877Z,16.05
2018-06-13T03:03:49.920Z,15.97
2018-06-13T03:06:17.908Z,15.96
2018-06-13T03:08:45.995Z,15.98
2018-06-13T03:11:14.073Z,16.10
2018-06-13T03:13:42.224Z,16.31
2018-06-13T03:16:10.251Z,16.73
2018-06-13T03:18:38.399Z,17.19
2018-06-13T03:21:06.429Z,17.63
2018-06-13T03:23:34.533Z,18.22
2018-06-13T03:26:02.584Z,18.98
2018-06-13T03:28:30.641Z,19.21
2018-06-13T03:30:58.885Z,19.39
2018-06-13T03:33:26.893Z,19.94
2018-06-13T03:35:55.010Z,20.32
2018-06-13T03:38:23.149Z,21.17
2018-06-13T03:40:51.236Z,21.53
2018-06-13T03:43:19.241Z,22.15
2018-06-13T03:45:47.353Z,22.04
2018-06-13T03:48:15.456Z,22.34
2018-06-13T03:50:43.486Z,22.31
2018-06-13T03:53:11.572Z,22.47
2018-06-13T03:55:39.692Z,21.94
2018-06-13T03:58:07.945Z,22.18
2018-06-13T04:00:35.902Z,22.40
2018-06-13T04:03:03.896Z,22.86
2018-06-13T04:05:31.995Z,22.83
2018-06-13T04:08:00.149Z,22.76
2018-06-13T04:10:28.209Z,22.22
2018-06-13T04:12:56.420Z,22.20
2018-06-13T04:15:24.723Z,21.92
2018-06-13T04:17:52.733Z,21.35
2018-06-13T04:20:20.818Z,20.56
2018-06-13T04:22:48.943Z,21.31
2018-06-13T04:25:16.999Z,22.19
2018-06-13T04:27:45.161Z,22.82
2018-06-13T04:30:13.259Z,23.08
2018-06-13T04:32:41.413Z,23.25
2018-06-13T04:35:09.770Z,23.26
2018-06-13T04:37:37.991Z,23.22
2018-06-13T04:40:05.996Z,23.45
2018-06-13T04:42:34.130Z,23.86
2018-06-13T04:45:02.241Z,23.59
2018-06-13T04:47:30.473Z,23.67
2018-06-13T04:49:58.693Z,23.52
2018-06-13T04:52:27.185Z,23.74
2018-06-13T04:54:55.460Z,23.84
2018-06-13T04:57:23.789Z,23.87
2018-06-13T04:59:52.368Z,23.74
2018-06-13T05:02:20.693Z,23.33
2018-06-13T05:04:49.451Z,23.66
2018-06-13T05:07:17.750Z,23.60
2018-06-13T05:09:46.043Z,23.61
2018-06-13T05:12:14.626Z,23.72
2018-06-13T05:14:42.945Z,23.99
2018-06-13T05:17:11.175Z,24.11
2018-06-13T05:19:39.411Z,23.63
2018-06-13T05:22:07.664Z,23.35
2018-06-13T05:24:35.935Z,22.95
2018-06-13T05:27:04.135Z,23.46
2018-06-13T05:29:32.377Z,23.46
2018-06-13T05:32:00.701Z,23.97
2018-06-13T05:34:29.007Z,23.75
2018-06-13T05:36:57.308Z,24.20
2018-06-13T05:39:25.471Z,24.50
2018-06-13T05:41:53.613Z,24.43
2018-06-13T05:44:21.830Z,24.98
2018-06-13T05:46:50.097Z,24.65
2018-06-13T05:49:18.195Z,24.27
2018-06-13T05:51:46.402Z,24.51
2018-06-13T05:54:14.578Z,24.52
2018-06-13T05:56:42.719Z,24.92
2018-06-13T05:59:10.857Z,24.54
2018-06-13T06:01:39.509Z,24.41
2018-06-13T06:04:07.715Z,24.55
2018-06-13T06:06:36.053Z,24.33
2018-06-13T06:09:07.380Z,24.91
2018-06-13T06:11:35.612Z,25.16
2018-06-13T06:14:04.270Z,24.99
2018-06-13T06:16:32.614Z,25.28
2018-06-13T06:19:01.181Z,25.06
2018-06-13T06:21:29.474Z,25.23
2018-06-13T06:23:57.570Z,25.49
2018-06-13T06:26:25.808Z,25.28
2018-06-13T06:28:54.558Z,25.33
2018-06-13T06:31:23.186Z,25.84
2018-06-13T06:33:52.035Z,26.06
2018-06-13T06:36:20.569Z,25.88
2018-06-13T06:38:48.831Z,26.29
2018-06-13T06:41:17.054Z,26.60
2018-06-13T06:43:45.429Z,26.78
2018-06-13T06:46:13.656Z,26.96
2018-06-13T06:48:41.849Z,26.55
2018-06-13T06:51:09.950Z,26.67
2018-06-13T06:53:38.157Z,25.94
2018-06-13T06:56:06.234Z,26.12
2018-06-13T06:58:34.996Z,26.40
2018-06-13T07:01:03.572Z,26.76
2018-06-13T07:03:31.760Z,27.48
2018-06-13T07:05:59.871Z,27.13
2018-06-13T07:08:28.041Z,27.37
2018-06-13T07:10:56.170Z,27.39
2018-06-13T07:13:24.311Z,27.81
2018-06-13T07:15:52.380Z,28.34
2018-06-13T07:18:20.487Z,28.48
2018-06-13T07:20:48.832Z,28.16
2018-06-13T07:23:17.026Z,27.22
2018-06-13T07:25:45.282Z,27.43
2018-06-13T07:28:13.624Z,28.33
2018-06-13T07:30:41.841Z,28.23
2018-06-13T07:33:09.880Z,28.21
2018-06-13T07:35:38.706Z,28.56
2018-06-13T07:38:07.057Z,28.32
2018-06-13T07:40:35.284Z,28.39
2018-06-13T07:43:03.626Z,28.73
2018-06-13T07:45:31.961Z,28.83
2018-06-13T07:48:00.248Z,28.83
2018-06-13T07:50:29.169Z,28.44
2018-06-13T07:52:57.377Z,28.27
2018-06-13T07:55:25.579Z,28.55
2018-06-13T07:57:53.832Z,28.73
2018-06-13T08:00:21.969Z,28.46
2018-06-13T08:02:50.422Z,28.84
2018-06-13T08:05:18.514Z,29.08
2018-06-13T08:07:47.171Z,29.50
2018-06-13T08:10:16.232Z,29.14
2018-06-13T08:12:45.248Z,28.94
2018-06-13T08:15:13.852Z,28.91
2018-06-13T08:17:42.399Z,29.75
2018-06-13T08:20:10.516Z,29.88
2018-06-13T08:22:38.667Z,29.81
2018-06-13T08:25:06.924Z,30.13
2018-06-13T08:27:37.805Z,30.98
2018-06-13T08:30:05.937Z,31.22
2018-06-13T08:32:34.178Z,30.62
2018-06-13T08:35:02.396Z,30.50
2018-06-13T08:37:30.703Z,30.89
2018-06-13T08:39:59.002Z,31.29
2018-06-13T08:42:27.332Z,31.83
2018-06-13T08:44:55.919Z,31.68
2018-06-13T08:47:24.423Z,31.48
2018-06-13T08:49:52.585Z,31.22
2018-06-13T08:52:20.644Z,31.47
2018-06-13T08:54:48.850Z,32.18
2018-06-13T08:57:17.240Z,32.30
2018-06-13T08:59:45.489Z,32.29
2018-06-13T09:02:14.471Z,31.20
2018-06-13T09:04:43.138Z,31.35
2018-06-13T09:07:11.791Z,31.91
2018-06-13T09:09:40.036Z,31.59
2018-06-13T09:12:08.143Z,32.02
2018-06-13T09:14:36.802Z,31.27
2018-06-13T09:17:04.831Z,30.13
2018-06-13T09:19:33.943Z,29.63
2018-06-13T09:22:02.311Z,29.86
2018-06-13T09:24:30.869Z,29.92
2018-06-13T09:26:59.590Z,30.70
2018-06-13T09:29:27.868Z,30.26
2018-06-13T09:31:55.975Z,30.00
2018-06-13T09:34:24.012Z,30.70
2018-06-13T09:36:52.104Z,31.08
2018-06-13T09:39:20.347Z,31.08
2018-06-13T09:42:03.418Z,31.28
2018-06-13T09:44:31.488Z,31.78
2018-06-13T09:47:06.899Z,32.04
2018-06-13T09:49:27.754Z,32.85
2018-06-13T09:51:56.224Z,32.61
2018-06-13T09:54:24.485Z,32.10
2018-06-13T09:56:52.896Z,32.68
2018-06-13T09:59:21.225Z,33.13
2018-06-13T10:01:55.290Z,32.86
2018-06-13T10:04:23.596Z,33.17
2018-06-13T10:06:51.742Z,33.53
2018-06-13T10:09:19.816Z,33.75
2018-06-13T10:11:47.998Z,34.19
2018-06-13T10:14:16.024Z,33.80
2018-06-13T10:16:44.287Z,33.38
2018-06-13T10:19:12.387Z,34.03
2018-06-13T10:21:40.532Z,33.88
2018-06-13T10:24:08.686Z,33.98
2018-06-13T10:26:36.883Z,32.74
2018-06-13T10:29:05.017Z,32.06
2018-06-13T10:31:33.073Z,33.44
2018-06-13T10:34:01.220Z,33.85
2018-06-13T10:36:29.258Z,32.84
2018-06-13T10:38:57.332Z,31.68
2018-06-13T10:41:25.369Z,32.86
2018-06-13T10:43:53.596Z,33.33
2018-06-13T10:46:21.850Z,33.22
2018-06-13T10:48:49.976Z,33.71
2018-06-13T10:51:18.753Z,33.36
2018-06-13T10:53:46.956Z,32.39
2018-06-13T10:56:15.744Z,32.00
2018-06-13T10:58:44.016Z,32.53
2018-06-13T11:01:13.152Z,32.08
2018-06-13T11:03:41.412Z,32.26
2018-06-13T11:06:09.846Z,32.47
2018-06-13T11:08:38.139Z,32.54
2018-06-13T11:11:06.320Z,32.20
2018-06-13T11:13:34.581Z,31.43
2018-06-13T11:16:02.667Z,31.29
2018-06-13T11:18:30.904Z,31.44
2018-06-13T11:20:59.129Z,31.40
2018-06-13T11:23:27.339Z,31.42
2018-06-13T11:25:55.966Z,31.49
2018-06-13T11:28:24.517Z,31.29
2018-06-13T11:30:52.976Z,30.98
2018-06-13T11:33:21.307Z,30.92
2018-06-13T11:35:49.596Z,30.86
2018-06-13T11:38:18.337Z,30.55
2018-06-13T11:40:46.610Z,30.53
2018-06-13T11:43:15.008Z,30.73
2018-06-13T11:45:43.585Z,30.89
2018-06-13T11:48:12.259Z,30.72
2018-06-13T11:50:41.072Z,30.81
2018-06-13T11:53:09.624Z,31.04
2018-06-13T11:55:38.226Z,31.77
2018-06-13T11:58:06.938Z,32.12
2018-06-13T12:00:35.362Z,32.48
2018-06-13T12:03:03.895Z,32.78
2018-06-13T12:05:32.119Z,33.12
2018-06-13T12:08:00.357Z,33.28
2018-06-13T12:10:28.610Z,32.61
2018-06-13T12:12:56.871Z,31.87
2018-06-13T12:15:25.130Z,31.56
2018-06-13T12:17:53.381Z,30.40
2018-06-13T12:20:21.654Z,29.19
2018-06-13T12:22:50.125Z,27.80
2018-06-13T12:25:18.636Z,27.55
2018-06-13T12:27:47.055Z,27.19
2018-06-13T12:30:15.472Z,26.46
2018-06-13T12:32:43.743Z,25.87
2018-06-13T12:35:12.036Z,25.57
2018-06-13T12:37:40.720Z,25.78
2018-06-13T12:40:08.910Z,25.75
2018-06-13T12:42:37.235Z,25.79
2018-06-13T12:45:05.562Z,25.64
2018-06-13T12:47:33.962Z,25.49
2018-06-13T12:50:02.428Z,25.52
2018-06-13T12:52:30.885Z,25.60
2018-06-13T12:54:59.026Z,25.56
2018-06-13T12:57:27.318Z,25.46
2018-06-13T12:59:55.657Z,25.56
2018-06-13T13:02:23.829Z,25.76
2018-06-13T13:04:51.944Z,25.60
2018-06-13T13:07:20.436Z,25.72
2018-06-13T13:09:48.755Z,25.76
2018-06-13T13:12:16.954Z,25.54
2018-06-13T13:14:45.192Z,25.29
2018-06-13T13:17:13.389Z,25.35
2018-06-13T13:19:41.705Z,25.31
2018-06-13T13:22:10.010Z,25.23
2018-06-13T13:24:38.433Z,25.48
2018-06-13T13:27:06.693Z,25.44
2018-06-13T13:29:34.890Z,25.51
2018-06-13T13:32:03.130Z,25.78
2018-06-13T13:34:31.197Z,26.10
2018-06-13T13:36:59.299Z,26.32
2018-06-13T13:39:27.536Z,26.65
2018-06-13T13:41:55.674Z,27.07
2018-06-13T13:44:23.856Z,27.17
2018-06-13T13:46:52.111Z,27.53
2018-06-13T13:49:20.301Z,27.54
2018-06-13T13:51:48.827Z,27.87
2018-06-13T13:54:17.144Z,27.84
2018-06-13T13:56:45.371Z,27.31
2018-06-13T13:59:13.670Z,27.10
2018-06-13T14:01:42.229Z,27.06
2018-06-13T14:04:10.602Z,26.94
2018-06-13T14:06:39.473Z,26.78
2018-06-13T14:09:09.524Z,26.61
2018-06-13T14:11:37.794Z,26.68
2018-06-13T14:14:06.083Z,26.77
2018-06-13T14:16:34.500Z,26.57
2018-06-13T14:19:02.825Z,26.18
2018-06-13T14:21:31.253Z,25.81
2018-06-13T14:23:59.561Z,25.32
2018-06-13T14:26:27.700Z,25.29
2018-06-13T14:28:56.049Z,25.29
2018-06-13T14:31:25.271Z,25.29
2018-06-13T14:33:53.863Z,25.10
2018-06-13T14:36:22.164Z,24.92
2018-06-13T14:38:50.535Z,24.82
2018-06-13T14:41:18.792Z,24.77
2018-06-13T14:43:47.078Z,24.72
2018-06-13T14:46:15.683Z,24.60
2018-06-13T14:48:44.052Z,24.50
2018-06-13T14:51:12.546Z,24.34
2018-06-13T14:53:40.904Z,23.93
2018-06-13T14:56:14.944Z,23.72
2018-06-13T14:58:43.098Z,23.50
2018-06-13T15:01:11.249Z,23.47
2018-06-13T15:03:40.444Z,23.45
2018-06-13T15:06:09.192Z,23.32
2018-06-13T15:08:37.787Z,23.06
2018-06-13T15:11:06.422Z,22.91
2018-06-13T15:13:34.850Z,22.91
2018-06-13T15:16:03.168Z,22.83
2018-06-13T15:18:31.441Z,22.85
2018-06-13T15:20:59.763Z,22.90
2018-06-13T15:23:27.950Z,22.71
2018-06-13T15:25:56.195Z,22.69
2018-06-13T15:28:24.378Z,22.76
2018-06-13T15:30:52.554Z,22.62
2018-06-13T15:33:20.801Z,22.59
2018-06-13T15:35:48.998Z,22.48
2018-06-13T15:38:17.188Z,22.38
2018-06-13T15:40:45.534Z,22.18
2018-06-13T15:43:15.182Z,22.06
2018-06-13T15:45:43.393Z,21.91
2018-06-13T15:48:11.661Z,21.76
2018-06-13T15:50:39.885Z,21.67
2018-06-13T15:53:08.091Z,21.58
2018-06-13T15:55:36.308Z,21.59
2018-06-13T15:58:04.915Z,21.54
2018-06-13T16:00:32.983Z,21.48
2018-06-13T16:03:01.217Z,21.39
2018-06-13T16:05:29.392Z,21.29
2018-06-13T16:07:57.533Z,21.27
2018-06-13T16:10:25.847Z,21.08
2018-06-13T16:12:54.060Z,21.02
2018-06-13T16:15:22.202Z,21.09
2018-06-13T16:17:50.288Z,21.03
2018-06-13T16:20:18.385Z,21.00
2018-06-13T16:22:46.625Z,20.95
2018-06-13T16:25:14.854Z,20.76
2018-06-13T16:27:43.575Z,20.78
2018-06-13T16:30:13.078Z,20.83
2018-06-13T16:32:41.683Z,20.67
2018-06-13T16:35:11.213Z,20.76
2018-06-13T16:37:40.072Z,20.63
2018-06-13T16:40:08.567Z,20.47
2018-06-13T16:42:37.053Z,20.38
2018-06-13T16:45:05.797Z,20.24
2018-06-13T16:47:34.318Z,20.26
2018-06-13T16:50:12.914Z,20.24
2018-06-13T16:53:55.044Z,20.23
2018-06-13T16:56:24.336Z,20.03
2018-06-13T16:58:53.429Z,19.68
2018-06-13T17:01:22.522Z,19.43
2018-06-13T17:03:52.112Z,19.36
2018-06-13T17:06:20.530Z,19.26
2018-06-13T17:08:49.595Z,19.09
2018-06-13T17:11:19.624Z,18.93
2018-06-13T17:13:49.422Z,18.87
2018-06-13T17:16:19.098Z,18.62
2018-06-13T17:18:48.158Z,18.41
2018-06-13T17:21:16.945Z,18.32
2018-06-13T17:23:45.764Z,18.22
2018-06-13T17:26:14.536Z,18.13
2018-06-13T17:28:43.233Z,18.07
2018-06-13T17:31:11.965Z,17.99
2018-06-13T17:33:40.621Z,17.93
2018-06-13T17:36:09.417Z,17.80
2018-06-13T17:38:38.439Z,17.85
2018-06-13T17:41:07.596Z,17.73
2018-06-13T17:43:36.591Z,17.64
2018-06-13T17:46:05.326Z,17.66
2018-06-13T17:48:33.928Z,17.58
2018-06-13T17:51:02.489Z,17.59
2018-06-13T17:53:31.038Z,17.61
2018-06-13T17:55:59.757Z,17.64
2018-06-13T17:58:28.548Z,17.73
2018-06-13T18:00:57.269Z,17.71
2018-06-13T18:03:25.702Z,17.54
2018-06-13T18:05:54.566Z,17.56
2018-06-13T18:08:23.228Z,17.56
2018-06-13T18:10:52.077Z,17.33
2018-06-13T18:13:22.511Z,17.08
2018-06-13T18:15:51.419Z,16.96
2018-06-13T18:18:19.855Z,16.88
2018-06-13T18:20:48.834Z,16.95
2018-06-13T18:23:17.711Z,16.83
2018-06-13T18:25:46.521Z,16.73
2018-06-13T18:28:15.109Z,16.81
2018-06-13T18:30:43.862Z,16.83
2018-06-13T18:33:12.542Z,16.78
2018-06-13T18:35:41.107Z,16.76
2018-06-13T18:38:09.882Z,16.84
2018-06-13T18:40:38.555Z,16.82
2018-06-13T18:43:07.193Z,16.77
2018-06-13T18:45:35.652Z,16.84
2018-06-13T18:48:04.308Z,16.84
2018-06-13T18:50:32.846Z,16.84
2018-06-13T18:53:01.390Z,16.77
2018-06-13T18:55:29.876Z,16.77
2018-06-13T18:57:58.421Z,16.63
2018-06-13T19:00:27.310Z,16.64
2018-06-13T19:02:55.855Z,16.54
2018-06-13T19:05:24.540Z,16.67
2018-06-13T19:07:53.199Z,16.77
2018-06-13T19:10:21.882Z,16.77
2018-06-13T19:12:51.017Z,16.78
2018-06-13T19:15:20.156Z,16.72
2018-06-13T19:17:48.887Z,16.70
2018-06-13T19:20:17.505Z,16.74
2018-06-13T19:22:46.500Z,16.75
2018-06-13T19:25:15.696Z,16.78
2018-06-13T19:27:44.315Z,16.72
2018-06-13T19:30:12.527Z,16.75
2018-06-13T19:32:40.978Z,16.77
2018-06-13T19:35:09.164Z,16.76
2018-06-13T19:37:37.565Z,16.78
2018-06-13T19:40:06.135Z,16.67
2018-06-13T19:42:34.311Z,16.63
2018-06-13T19:45:02.501Z,16.64
2018-06-13T19:47:36.126Z,16.60
2018-06-13T19:50:04.549Z,16.57
2018-06-13T19:52:38.113Z,16.65
2018-06-13T19:55:11.937Z,16.66
2018-06-13T19:57:40.085Z,16.58
2018-06-13T20:00:08.141Z,16.62
2018-06-13T20:02:41.910Z,16.63
2018-06-13T20:05:15.445Z,16.68
2018-06-13T20:07:43.572Z,16.64
2018-06-13T20:10:11.836Z,16.63
2018-06-13T20:12:45.650Z,16.58
2018-06-13T20:15:19.303Z,16.62
2018-06-13T20:17:52.996Z,16.57
2018-06-13T20:20:21.258Z,16.54
2018-06-13T20:22:49.424Z,16.53
2018-06-13T20:25:23.410Z,16.50
2018-06-13T20:27:57.057Z,16.50
2018-06-13T20:30:30.980Z,16.50
2018-06-13T20:32:59.124Z,16.52
2018-06-13T20:35:27.268Z,16.54
2018-06-13T20:37:55.272Z,16.48
2018-06-13T20:40:23.330Z,16.48
2018-06-13T20:42:51.491Z,16.45
2018-06-13T20:45:19.588Z,16.47
2018-06-13T20:47:47.666Z,16.50
2018-06-13T20:50:15.761Z,16.43
2018-06-13T20:52:43.867Z,16.44
2018-06-13T20:55:11.933Z,16.38
2018-06-13T20:57:40.000Z,16.40
2018-06-13T21:00:08.030Z,16.39
2018-06-13T21:02:36.156Z,16.37
2018-06-13T21:05:04.306Z,16.31
2018-06-13T21:07:32.427Z,16.26
2018-06-13T21:10:00.574Z,16.26
2018-06-13T21:12:28.678Z,16.22
2018-06-13T21:14:56.745Z,16.21
2018-06-13T21:17:24.958Z,16.17
2018-06-13T21:19:52.953Z,16.19
2018-06-13T21:22:21.056Z,16.22
2018-06-13T21:24:49.132Z,16.24
2018-06-13T21:27:17.245Z,16.25
2018-06-13T21:29:45.518Z,16.24
2018-06-13T21:32:13.576Z,16.24
2018-06-13T21:34:41.635Z,16.27
2018-06-13T21:37:09.720Z,16.32
2018-06-13T21:39:37.738Z,16.26
2018-06-13T21:42:05.985Z,16.26
2018-06-13T21:44:34.084Z,16.26
2018-06-13T21:47:02.329Z,16.21
2018-06-13T21:49:30.382Z,16.15
2018-06-13T21:51:58.503Z,16.12
2018-06-13T21:54:26.548Z,16.07
2018-06-13T21:56:54.621Z,16.04
2018-06-13T21:59:22.667Z,15.99
2018-06-13T22:01:50.856Z,15.97
2018-06-13T22:04:18.842Z,15.95
2018-06-13T22:06:46.976Z,15.91
2018-06-13T22:09:14.996Z,15.84
2018-06-13T22:11:48.596Z,15.79
2018-06-13T22:14:16.649Z,15.74
2018-06-13T22:16:44.647Z,15.74
2018-06-13T22:19:12.696Z,15.73
2018-06-13T22:21:40.759Z,15.61
2018-06-13T22:24:08.779Z,15.67
2018-06-13T22:26:36.874Z,15.65
2018-06-13T22:29:04.966Z,15.61
2018-06-13T22:31:32.998Z,15.57
2018-06-13T22:34:01.028Z,15.53
2018-06-13T22:36:29.044Z,15.53
2018-06-13T22:38:57.060Z,15.52
2018-06-13T22:41:25.088Z,15.53
2018-06-13T22:43:53.278Z,15.47
2018-06-13T22:46:21.226Z,15.49
2018-06-13T22:48:49.344Z,15.47
2018-06-13T22:51:17.404Z,15.48
2018-06-13T22:53:45.461Z,15.52
2018-06-13T22:56:13.553Z,15.43
2018-06-13T22:58:41.551Z,15.52
2018-06-13T23:01:11.400Z,15.47
2018-06-13T23:03:39.628Z,15.47
2018-06-13T23:06:08.663Z,15.47
2018-06-13T23:08:37.515Z,15.51
2018-06-13T23:11:05.645Z,15.53
2018-06-13T23:13:33.607Z,15.53
2018-06-13T23:16:01.684Z,15.55
2018-06-13T23:18:30.328Z,15.46
2018-06-13T23:20:58.430Z,15.45
2018-06-13T23:23:26.555Z,15.44
2018-06-13T23:25:55.596Z,15.48
2018-06-13T23:28:23.669Z,15.55
2018-06-13T23:30:51.805Z,15.59
2018-06-13T23:33:19.870Z,15.57
2018-06-13T23:35:47.906Z,15.58
2018-06-13T23:38:16.348Z,15.54
2018-06-13T23:40:44.603Z,15.55
2018-06-13T23:43:12.652Z,15.60
2018-06-13T23:45:40.750Z,15.63
2018-06-13T23:48:08.775Z,15.70
2018-06-13T23:50:36.893Z,15.69
2018-06-13T23:53:05.230Z,15.72
2018-06-13T23:55:33.280Z,15.72
2018-06-13T23:58:01.283Z,15.74
